createdAt,value
2022-08-11T00:00:16.228Z,17.90
2022-08-11T00:01:16.227Z,17.89
2022-08-11T00:02:16.206Z,17.85
2022-08-11T00:03:16.207Z,17.83
2022-08-11T00:04:16.175Z,17.83
2022-08-11T00:05:16.157Z,17.82
2022-08-11T00:06:16.197Z,17.78
2022-08-11T00:07:16.136Z,17.78
2022-08-11T00:08:24.437Z,17.74
2022-08-11T00:09:16.110Z,17.72
2022-08-11T00:10:16.091Z,17.70
2022-08-11T00:11:16.100Z,17.68
2022-08-11T00:12:16.068Z,17.67
2022-08-11T00:13:16.974Z,17.64
2022-08-11T00:14:16.031Z,17.64
2022-08-11T00:15:16.031Z,17.63
2022-08-11T00:16:16.031Z,17.59
2022-08-11T00:17:16.078Z,17.56
2022-08-11T00:18:15.988Z,17.56
2022-08-11T00:19:15.990Z,17.52
2022-08-11T00:20:17.314Z,17.51
2022-08-11T00:21:15.972Z,17.48
2022-08-11T00:22:15.930Z,17.46
2022-08-11T00:23:17.383Z,17.45
2022-08-11T00:24:15.912Z,17.42
2022-08-11T00:25:15.909Z,17.39
2022-08-11T00:26:15.901Z,17.38
2022-08-11T00:27:15.879Z,17.36
2022-08-11T00:28:15.863Z,17.33
2022-08-11T00:29:15.851Z,17.30
2022-08-11T00:30:15.840Z,17.29
2022-08-11T00:31:15.841Z,17.26
2022-08-11T00:32:15.810Z,17.24
2022-08-11T00:33:15.800Z,17.22
2022-08-11T00:34:15.780Z,17.20
2022-08-11T00:35:51.864Z,17.20
2022-08-11T00:36:18.907Z,17.16
2022-08-11T00:37:15.750Z,17.15
2022-08-11T00:38:15.731Z,17.14
2022-08-11T00:39:15.785Z,17.12
2022-08-11T00:40:15.692Z,17.09
2022-08-11T00:41:15.693Z,17.08
2022-08-11T00:42:15.690Z,17.05
2022-08-11T00:43:20.032Z,17.02
2022-08-11T00:44:16.660Z,17.02
2022-08-11T00:45:15.639Z,16.99
2022-08-11T00:46:15.627Z,16.99
2022-08-11T00:47:15.629Z,16.97
2022-08-11T00:48:15.599Z,16.97
2022-08-11T00:49:15.589Z,16.93
2022-08-11T00:50:15.568Z,16.91
2022-08-11T00:51:15.557Z,16.90
2022-08-11T00:52:15.559Z,16.90
2022-08-11T00:53:15.537Z,16.87
2022-08-11T00:54:15.518Z,16.86
2022-08-11T00:55:15.502Z,16.83
2022-08-11T00:56:15.519Z,16.83
2022-08-11T00:57:37.219Z,16.81
2022-08-11T00:58:21.774Z,16.78
2022-08-11T00:59:35.523Z,16.76
2022-08-11T01:00:16.438Z,16.76
2022-08-11T01:01:15.487Z,16.74
2022-08-11T01:02:15.429Z,16.71
2022-08-11T01:03:15.397Z,16.71
2022-08-11T01:04:15.390Z,16.69
2022-08-11T01:05:15.376Z,16.68
2022-08-11T01:06:15.378Z,16.65
2022-08-11T01:07:15.378Z,16.61
2022-08-11T01:08:16.355Z,16.61
2022-08-11T01:09:21.963Z,16.58
2022-08-11T01:10:16.307Z,16.57
2022-08-11T01:11:15.298Z,16.53
2022-08-11T01:12:15.297Z,16.53
2022-08-11T01:13:15.275Z,16.51
2022-08-11T01:14:15.256Z,16.50
2022-08-11T01:15:15.245Z,16.50
2022-08-11T01:16:15.227Z,16.47
2022-08-11T01:17:15.229Z,16.47
2022-08-11T01:18:15.196Z,16.46
2022-08-11T01:19:15.187Z,16.42
2022-08-11T01:20:44.918Z,16.39
2022-08-11T01:21:16.166Z,16.38
2022-08-11T01:22:15.156Z,16.36
2022-08-11T01:23:17.498Z,16.35
2022-08-11T01:24:15.126Z,16.32
2022-08-11T01:25:15.106Z,16.31
2022-08-11T01:26:15.100Z,16.31
2022-08-11T01:27:19.364Z,16.29
2022-08-11T01:28:15.067Z,16.28
2022-08-11T01:29:15.065Z,16.26
2022-08-11T01:30:15.036Z,16.24
2022-08-11T01:31:15.038Z,16.23
2022-08-11T01:32:15.026Z,16.21
2022-08-11T01:33:14.998Z,16.17
2022-08-11T01:34:14.995Z,16.16
2022-08-11T01:35:14.974Z,16.16
2022-08-11T01:36:14.955Z,16.12
2022-08-11T01:37:14.969Z,16.12
2022-08-11T01:38:14.946Z,16.10
2022-08-11T01:39:18.423Z,16.10
2022-08-11T01:40:14.903Z,16.08
2022-08-11T01:41:14.898Z,16.08
2022-08-11T01:42:14.897Z,16.05
2022-08-11T01:43:14.865Z,16.02
2022-08-11T01:44:14.842Z,16.02
2022-08-11T01:45:14.855Z,16.00
2022-08-11T01:46:14.819Z,15.97
2022-08-11T01:47:14.835Z,15.97
2022-08-11T01:48:14.817Z,15.94
2022-08-11T01:50:06.591Z,15.92
2022-08-11T01:50:15.765Z,15.92
2022-08-11T01:51:16.883Z,15.90
2022-08-11T01:52:14.746Z,15.88
2022-08-11T01:53:14.725Z,15.88
2022-08-11T01:54:14.715Z,15.86
2022-08-11T01:55:14.713Z,15.84
2022-08-11T01:56:14.685Z,15.83
2022-08-11T01:57:14.686Z,15.82
2022-08-11T01:58:14.663Z,15.80
2022-08-11T01:59:14.712Z,15.80
2022-08-11T02:00:14.635Z,15.79
2022-08-11T02:01:14.686Z,15.79
2022-08-11T02:02:18.907Z,15.76
2022-08-11T02:03:15.603Z,15.76
2022-08-11T02:04:14.575Z,15.73
2022-08-11T02:05:14.585Z,15.72
2022-08-11T02:06:14.553Z,15.72
2022-08-11T02:07:14.562Z,15.68
2022-08-11T02:08:14.523Z,15.67
2022-08-11T02:09:14.514Z,15.64
2022-08-11T02:10:14.502Z,15.64
2022-08-11T02:11:14.492Z,15.62
2022-08-11T02:12:14.494Z,15.64
2022-08-11T02:13:14.455Z,15.59
2022-08-11T02:14:14.450Z,15.58
2022-08-11T02:15:14.434Z,15.58
2022-08-11T02:16:14.414Z,15.57
2022-08-11T02:17:14.423Z,15.57
2022-08-11T02:18:14.393Z,15.54
2022-08-11T02:19:14.393Z,15.52
2022-08-11T02:20:14.363Z,15.52
2022-08-11T02:21:14.364Z,15.51
2022-08-11T02:22:14.373Z,15.49
2022-08-11T02:23:14.332Z,15.49
2022-08-11T02:24:15.323Z,15.47
2022-08-11T02:25:17.706Z,15.46
2022-08-11T02:26:14.283Z,15.44
2022-08-11T02:27:14.299Z,15.43
2022-08-11T02:28:14.254Z,15.42
2022-08-11T02:29:14.254Z,15.40
2022-08-11T02:30:14.223Z,15.42
2022-08-11T02:31:22.535Z,15.40
2022-08-11T02:32:28.593Z,15.37
2022-08-11T02:33:15.312Z,15.36
2022-08-11T02:34:14.173Z,15.36
2022-08-11T02:35:14.161Z,15.35
2022-08-11T02:36:14.143Z,15.35
2022-08-11T02:37:14.163Z,15.33
2022-08-11T02:38:14.111Z,15.29
2022-08-11T02:39:14.166Z,15.28
2022-08-11T02:40:14.094Z,15.27
2022-08-11T02:41:14.101Z,15.25
2022-08-11T02:42:35.232Z,15.25
2022-08-11T02:43:15.066Z,15.24
2022-08-11T02:44:14.040Z,15.22
2022-08-11T02:45:14.023Z,15.24
2022-08-11T02:46:18.434Z,15.19
2022-08-11T02:47:14.011Z,15.19
2022-08-11T02:48:14.080Z,15.21
2022-08-11T02:49:14.006Z,15.18
2022-08-11T02:50:13.960Z,15.17
2022-08-11T02:51:13.951Z,15.15
2022-08-11T02:52:14.961Z,15.15
2022-08-11T02:53:13.923Z,15.11
2022-08-11T02:54:13.900Z,15.11
2022-08-11T02:55:44.684Z,15.10
2022-08-11T02:56:14.880Z,15.09
2022-08-11T02:57:13.888Z,15.09
2022-08-11T02:58:13.850Z,15.09
2022-08-11T02:59:13.850Z,15.04
2022-08-11T03:00:13.811Z,15.04
2022-08-11T03:01:13.844Z,15.06
2022-08-11T03:02:13.854Z,15.03
2022-08-11T03:03:13.781Z,15.03
2022-08-11T03:04:13.770Z,15.02
2022-08-11T03:05:13.772Z,15.02
2022-08-11T03:06:13.741Z,14.99
2022-08-11T03:07:28.883Z,14.99
2022-08-11T03:08:14.738Z,14.99
2022-08-11T03:09:13.710Z,14.97
2022-08-11T03:10:13.689Z,14.94
2022-08-11T03:11:13.679Z,14.94
2022-08-11T03:12:13.682Z,14.94
2022-08-11T03:13:14.218Z,14.92
2022-08-11T03:14:13.630Z,14.91
2022-08-11T03:15:13.619Z,14.91
2022-08-11T03:16:13.610Z,14.88
2022-08-11T03:17:13.610Z,14.88
2022-08-11T03:18:13.584Z,14.86
2022-08-11T03:19:13.569Z,14.85
2022-08-11T03:20:13.560Z,14.85
2022-08-11T03:21:13.540Z,14.86
2022-08-11T03:22:14.524Z,14.84
2022-08-11T03:23:20.391Z,14.82
2022-08-11T03:24:14.499Z,14.81
2022-08-11T03:25:13.509Z,14.79
2022-08-11T03:26:13.469Z,14.79
2022-08-11T03:27:13.468Z,14.79
2022-08-11T03:28:13.442Z,14.78
2022-08-11T03:29:18.305Z,14.78
2022-08-11T03:30:14.419Z,14.77
2022-08-11T03:31:13.400Z,14.72
2022-08-11T03:32:13.400Z,14.72
2022-08-11T03:33:13.393Z,14.72
2022-08-11T03:34:13.359Z,14.69
2022-08-11T03:35:17.790Z,14.68
2022-08-11T03:36:14.328Z,14.68
2022-08-11T03:37:16.680Z,14.68
2022-08-11T03:38:13.316Z,14.66
2022-08-11T03:39:13.377Z,14.65
2022-08-11T03:40:13.311Z,14.66
2022-08-11T03:41:49.325Z,14.62
2022-08-11T03:42:14.267Z,14.62
2022-08-11T03:43:13.249Z,14.60
2022-08-11T03:44:13.218Z,14.60
2022-08-11T03:45:13.231Z,14.59
2022-08-11T03:46:13.198Z,14.59
2022-08-11T03:47:13.197Z,14.58
2022-08-11T03:48:13.198Z,14.54
2022-08-11T03:49:13.158Z,14.54
2022-08-11T03:50:13.180Z,14.54
2022-08-11T03:51:13.140Z,14.53
2022-08-11T03:52:13.130Z,14.51
2022-08-11T03:53:13.117Z,14.51
2022-08-11T03:54:13.109Z,14.50
2022-08-11T03:55:13.090Z,14.50
2022-08-11T03:56:13.076Z,14.50
2022-08-11T03:57:13.056Z,14.47
2022-08-11T03:58:13.057Z,14.45
2022-08-11T03:59:13.026Z,14.45
2022-08-11T04:00:13.026Z,14.44
2022-08-11T04:01:13.037Z,14.44
2022-08-11T04:02:12.995Z,14.43
2022-08-11T04:03:12.996Z,14.43
2022-08-11T04:04:12.967Z,14.41
2022-08-11T04:05:12.957Z,14.41
2022-08-11T04:06:12.945Z,14.40
2022-08-11T04:07:17.792Z,14.37
2022-08-11T04:08:13.936Z,14.37
2022-08-11T04:09:13.273Z,14.37
2022-08-11T04:10:12.877Z,14.37
2022-08-11T04:11:12.888Z,14.36
2022-08-11T04:12:14.761Z,14.35
2022-08-11T04:13:13.846Z,14.35
2022-08-11T04:14:12.838Z,14.35
2022-08-11T04:15:12.825Z,14.35
2022-08-11T04:16:13.013Z,14.33
2022-08-11T04:17:12.824Z,14.32
2022-08-11T04:18:12.815Z,14.32
2022-08-11T04:19:12.765Z,14.32
2022-08-11T04:20:12.756Z,14.30
2022-08-11T04:21:12.738Z,14.30
2022-08-11T04:22:12.726Z,14.32
2022-08-11T04:23:12.715Z,14.29
2022-08-11T04:24:37.709Z,14.29
2022-08-11T04:25:13.679Z,14.28
2022-08-11T04:26:15.958Z,14.30
2022-08-11T04:27:14.366Z,14.29
2022-08-11T04:28:28.699Z,14.26
2022-08-11T04:29:13.622Z,14.28
2022-08-11T04:30:12.614Z,14.28
2022-08-11T04:31:12.611Z,14.25
2022-08-11T04:32:12.595Z,14.26
2022-08-11T04:33:12.583Z,14.26
2022-08-11T04:34:12.587Z,14.25
2022-08-11T04:35:12.573Z,14.26
2022-08-11T04:36:12.592Z,14.25
2022-08-11T04:37:12.514Z,14.25
2022-08-11T04:38:12.541Z,14.25
2022-08-11T04:39:12.577Z,14.23
2022-08-11T04:40:12.493Z,14.22
2022-08-11T04:41:12.471Z,14.20
2022-08-11T04:42:12.464Z,14.22
2022-08-11T04:43:12.483Z,14.23
2022-08-11T04:44:12.444Z,14.22
2022-08-11T04:45:12.412Z,14.23
2022-08-11T04:46:12.954Z,14.23
2022-08-11T04:47:12.391Z,14.25
2022-08-11T04:48:12.385Z,14.25
2022-08-11T04:49:12.379Z,14.25
2022-08-11T04:50:13.354Z,14.26
2022-08-11T04:51:17.496Z,14.25
2022-08-11T04:52:13.332Z,14.26
2022-08-11T04:53:12.314Z,14.26
2022-08-11T04:54:12.333Z,14.26
2022-08-11T04:55:12.361Z,14.26
2022-08-11T04:56:12.503Z,14.28
2022-08-11T04:57:12.243Z,14.29
2022-08-11T04:58:12.253Z,14.28
2022-08-11T04:59:12.260Z,14.29
2022-08-11T05:00:12.226Z,14.30
2022-08-11T05:01:12.243Z,14.32
2022-08-11T05:02:17.136Z,14.30
2022-08-11T05:03:13.182Z,14.33
2022-08-11T05:04:12.194Z,14.37
2022-08-11T05:05:12.153Z,14.40
2022-08-11T05:06:12.142Z,14.43
2022-08-11T05:07:12.123Z,14.47
2022-08-11T05:08:12.112Z,14.50
2022-08-11T05:09:12.122Z,14.51
2022-08-11T05:10:12.082Z,14.53
2022-08-11T05:11:12.082Z,14.55
2022-08-11T05:12:12.062Z,14.62
2022-08-11T05:13:12.070Z,14.68
2022-08-11T05:14:12.059Z,14.73
2022-08-11T05:15:12.021Z,14.77
2022-08-11T05:16:12.020Z,14.84
2022-08-11T05:17:11.991Z,14.88
2022-08-11T05:18:11.981Z,14.94
2022-08-11T05:19:12.002Z,15.03
2022-08-11T05:20:11.990Z,15.10
2022-08-11T05:21:11.969Z,15.18
2022-08-11T05:22:11.924Z,15.28
2022-08-11T05:23:11.911Z,15.39
2022-08-11T05:24:11.925Z,15.47
2022-08-11T05:25:11.889Z,15.59
2022-08-11T05:26:47.117Z,15.72
2022-08-11T05:27:13.990Z,15.82
2022-08-11T05:28:11.867Z,15.94
2022-08-11T05:29:19.728Z,16.04
2022-08-11T05:30:12.823Z,16.13
2022-08-11T05:31:11.813Z,16.23
2022-08-11T05:32:11.793Z,16.35
2022-08-11T05:33:11.789Z,16.46
2022-08-11T05:34:11.790Z,16.56
2022-08-11T05:36:00.611Z,16.65
2022-08-11T05:36:12.744Z,16.78
2022-08-11T05:37:26.060Z,16.86
2022-08-11T05:38:12.722Z,16.96
2022-08-11T05:39:11.743Z,17.05
2022-08-11T05:40:11.816Z,17.14
2022-08-11T05:41:11.675Z,17.22
2022-08-11T05:42:11.670Z,17.33
2022-08-11T05:43:12.649Z,17.42
2022-08-11T05:44:20.653Z,17.49
2022-08-11T05:45:15.536Z,17.60
2022-08-11T05:46:13.261Z,17.70
2022-08-11T05:47:11.630Z,17.78
2022-08-11T05:48:11.609Z,17.89
2022-08-11T05:49:11.572Z,17.98
2022-08-11T05:50:13.405Z,18.08
2022-08-11T05:51:11.543Z,18.16
2022-08-11T05:52:12.996Z,18.26
2022-08-11T05:53:12.520Z,18.37
2022-08-11T05:54:28.221Z,18.47
2022-08-11T05:55:12.512Z,18.59
2022-08-11T05:56:11.499Z,18.68
2022-08-11T05:57:48.735Z,18.75
2022-08-11T05:58:12.460Z,18.84
2022-08-11T05:59:11.454Z,18.93
2022-08-11T06:00:11.445Z,19.04
2022-08-11T06:01:11.510Z,19.14
2022-08-11T06:02:11.394Z,19.22
2022-08-11T06:03:11.385Z,19.34
2022-08-11T06:04:11.373Z,19.45
2022-08-11T06:05:11.382Z,19.54
2022-08-11T06:06:11.350Z,19.67
2022-08-11T06:07:11.330Z,19.76
2022-08-11T06:08:11.322Z,19.89
2022-08-11T06:09:11.310Z,20.00
2022-08-11T06:10:11.302Z,20.09
2022-08-11T06:11:11.261Z,20.22
2022-08-11T06:12:11.261Z,20.32
2022-08-11T06:13:11.310Z,20.44
2022-08-11T06:14:11.243Z,20.56
2022-08-11T06:15:11.233Z,20.69
2022-08-11T06:16:11.202Z,20.81
2022-08-11T06:17:11.199Z,20.95
2022-08-11T06:18:11.182Z,21.06
2022-08-11T06:19:11.870Z,21.21
2022-08-11T06:20:11.161Z,21.35
2022-08-11T06:21:11.132Z,21.45
2022-08-11T06:22:11.144Z,21.60
2022-08-11T06:23:11.108Z,21.72
2022-08-11T06:24:11.130Z,21.82
2022-08-11T06:25:11.081Z,21.95
2022-08-11T06:26:11.071Z,22.06
2022-08-11T06:27:13.549Z,22.18
2022-08-11T06:28:11.061Z,22.29
2022-08-11T06:29:11.040Z,22.39
2022-08-11T06:30:11.040Z,22.53
2022-08-11T06:31:11.002Z,22.65
2022-08-11T06:32:10.991Z,22.75
2022-08-11T06:33:10.972Z,22.83
2022-08-11T06:34:10.974Z,22.91
2022-08-11T06:35:10.962Z,23.00
2022-08-11T06:36:10.944Z,23.10
2022-08-11T06:37:10.960Z,23.20
2022-08-11T06:38:10.912Z,23.25
2022-08-11T06:39:10.994Z,23.41
2022-08-11T06:40:10.901Z,23.51
2022-08-11T06:41:10.871Z,23.63
2022-08-11T06:42:10.861Z,23.76
2022-08-11T06:43:10.843Z,23.88
2022-08-11T06:44:10.835Z,24.01
2022-08-11T06:45:10.831Z,24.14
2022-08-11T06:46:10.803Z,24.24
2022-08-11T06:47:10.813Z,24.36
2022-08-11T06:48:10.780Z,24.50
2022-08-11T06:49:10.763Z,24.63
2022-08-11T06:50:10.763Z,24.77
2022-08-11T06:51:10.733Z,24.89
2022-08-11T06:52:32.036Z,25.06
2022-08-11T06:53:11.713Z,25.17
2022-08-11T06:54:10.702Z,25.29
2022-08-11T06:55:58.014Z,25.41
2022-08-11T06:56:11.728Z,25.53
2022-08-11T06:57:29.285Z,25.63
2022-08-11T06:58:11.652Z,25.75
2022-08-11T06:59:10.633Z,25.91
2022-08-11T07:00:10.641Z,26.00
2022-08-11T07:01:10.649Z,26.06
2022-08-11T07:02:10.596Z,26.09
2022-08-11T07:03:10.584Z,26.16
2022-08-11T07:04:10.567Z,26.25
2022-08-11T07:05:10.564Z,26.40
2022-08-11T07:06:10.550Z,26.53
2022-08-11T07:07:10.528Z,26.66
2022-08-11T07:08:34.641Z,26.81
2022-08-11T07:09:11.504Z,26.95
2022-08-11T07:10:10.495Z,27.08
2022-08-11T07:11:10.464Z,27.21
2022-08-11T07:12:10.466Z,27.35
2022-08-11T07:13:10.476Z,27.49
2022-08-11T07:14:11.435Z,27.63
2022-08-11T07:15:10.427Z,27.73
2022-08-11T07:16:13.518Z,27.80
2022-08-11T07:17:10.396Z,27.90
2022-08-11T07:18:10.383Z,28.01
2022-08-11T07:19:10.364Z,28.12
2022-08-11T07:20:11.379Z,28.26
2022-08-11T07:22:00.485Z,28.39
2022-08-11T07:22:11.334Z,28.51
2022-08-11T07:23:10.308Z,28.63
2022-08-11T07:24:10.297Z,28.75
2022-08-11T07:25:10.295Z,28.85
2022-08-11T07:26:10.277Z,28.96
2022-08-11T07:27:10.259Z,29.07
2022-08-11T07:28:10.249Z,29.16
2022-08-11T07:29:10.228Z,29.27
2022-08-11T07:30:10.249Z,29.41
2022-08-11T07:31:10.216Z,29.51
2022-08-11T07:32:10.205Z,29.63
2022-08-11T07:33:10.175Z,29.75
2022-08-11T07:34:15.892Z,29.87
2022-08-11T07:35:11.166Z,29.97
2022-08-11T07:36:10.143Z,30.09
2022-08-11T07:37:10.126Z,30.21
2022-08-11T07:38:10.122Z,30.31
2022-08-11T07:39:10.130Z,30.43
2022-08-11T07:40:10.106Z,30.51
2022-08-11T07:41:10.079Z,30.65
2022-08-11T07:42:10.067Z,30.75
2022-08-11T07:43:10.048Z,30.87
2022-08-11T07:44:10.043Z,30.96
2022-08-11T07:45:10.033Z,31.02
2022-08-11T07:46:10.016Z,31.10
2022-08-11T07:47:09.988Z,31.24
2022-08-11T07:48:09.985Z,31.29
2022-08-11T07:49:09.967Z,31.34
2022-08-11T07:50:09.974Z,31.43
2022-08-11T07:51:09.939Z,31.54
2022-08-11T07:52:09.937Z,31.65
2022-08-11T07:53:09.922Z,31.76
2022-08-11T07:54:16.511Z,31.90
2022-08-11T07:55:10.933Z,32.01
2022-08-11T07:56:09.879Z,32.15
2022-08-11T07:57:38.982Z,32.27
2022-08-11T07:58:19.166Z,32.38
2022-08-11T07:59:10.838Z,32.52
2022-08-11T08:00:10.323Z,32.64
2022-08-11T08:01:10.669Z,32.74
2022-08-11T08:02:10.858Z,32.85
2022-08-11T08:03:09.790Z,32.93
2022-08-11T08:04:09.792Z,33.04
2022-08-11T08:05:09.779Z,33.12
2022-08-11T08:06:28.475Z,33.20
2022-08-11T08:07:10.742Z,33.27
2022-08-11T08:08:09.724Z,33.37
2022-08-11T08:09:09.720Z,33.46
2022-08-11T08:10:09.724Z,33.61
2022-08-11T08:11:09.689Z,33.73
2022-08-11T08:12:09.670Z,33.83
2022-08-11T08:13:09.662Z,33.94
2022-08-11T08:14:09.644Z,34.05
2022-08-11T08:15:09.653Z,34.20
2022-08-11T08:16:09.621Z,34.25
2022-08-11T08:17:09.610Z,34.35
2022-08-11T08:18:26.052Z,34.43
2022-08-11T08:19:10.581Z,34.54
2022-08-11T08:20:09.632Z,34.61
2022-08-11T08:21:09.562Z,34.71
2022-08-11T08:22:34.678Z,34.81
2022-08-11T08:23:10.542Z,34.86
2022-08-11T08:24:09.562Z,34.96
2022-08-11T08:25:09.559Z,35.04
2022-08-11T08:26:13.572Z,35.12
2022-08-11T08:27:10.481Z,35.22
2022-08-11T08:28:09.452Z,35.29
2022-08-11T08:29:09.447Z,35.31
2022-08-11T08:30:09.459Z,35.29
2022-08-11T08:31:09.423Z,35.34
2022-08-11T08:32:09.416Z,35.45
2022-08-11T08:33:09.417Z,35.56
2022-08-11T08:34:09.376Z,35.71
2022-08-11T08:35:09.396Z,35.82
2022-08-11T08:36:09.448Z,35.92
2022-08-11T08:37:15.902Z,36.02
2022-08-11T08:38:10.325Z,36.09
2022-08-11T08:39:09.364Z,36.17
2022-08-11T08:40:09.319Z,36.23
2022-08-11T08:41:09.295Z,36.30
2022-08-11T08:42:09.273Z,36.37
2022-08-11T08:43:09.265Z,36.47
2022-08-11T08:44:36.672Z,36.55
2022-08-11T08:45:10.305Z,36.62
2022-08-11T08:46:09.214Z,36.72
2022-08-11T08:47:09.213Z,36.79
2022-08-11T08:48:09.195Z,36.86
2022-08-11T08:49:09.185Z,36.92
2022-08-11T08:50:09.227Z,37.01
2022-08-11T08:51:11.028Z,37.11
2022-08-11T08:52:23.717Z,37.20
2022-08-11T08:53:10.136Z,37.08
2022-08-11T08:54:09.120Z,37.03
2022-08-11T08:55:09.126Z,37.08
2022-08-11T08:56:09.095Z,37.17
2022-08-11T08:57:09.084Z,37.30
2022-08-11T08:58:09.075Z,37.42
2022-08-11T08:59:09.060Z,37.55
2022-08-11T09:00:13.061Z,37.67
2022-08-11T09:01:10.083Z,37.77
2022-08-11T09:02:09.034Z,37.84
2022-08-11T09:03:38.145Z,37.93
2022-08-11T09:04:12.296Z,37.94
2022-08-11T09:05:08.996Z,37.99
2022-08-11T09:06:08.975Z,38.09
2022-08-11T09:07:08.961Z,38.12
2022-08-11T09:08:08.960Z,38.14
2022-08-11T09:09:08.997Z,38.20
2022-08-11T09:10:08.931Z,38.24
2022-08-11T09:11:13.462Z,38.27
2022-08-11T09:12:09.893Z,38.31
2022-08-11T09:13:08.913Z,38.40
2022-08-11T09:14:14.380Z,38.43
2022-08-11T09:15:09.875Z,38.52
2022-08-11T09:16:08.868Z,38.64
2022-08-11T09:17:08.833Z,38.71
2022-08-11T09:18:08.817Z,38.79
2022-08-11T09:19:08.810Z,38.84
2022-08-11T09:20:08.810Z,38.95
2022-08-11T09:21:08.780Z,38.95
2022-08-11T09:22:08.760Z,39.00
2022-08-11T09:24:14.959Z,39.12
2022-08-11T09:25:09.745Z,39.19
2022-08-11T09:26:08.718Z,39.26
2022-08-11T09:27:08.737Z,39.33
2022-08-11T09:28:08.685Z,39.43
2022-08-11T09:29:08.678Z,39.46
2022-08-11T09:30:08.676Z,39.52
2022-08-11T09:31:08.650Z,39.60
2022-08-11T09:32:08.633Z,39.68
2022-08-11T09:33:08.624Z,39.71
2022-08-11T09:34:08.609Z,39.75
2022-08-11T09:35:08.628Z,39.81
2022-08-11T09:36:08.582Z,39.77
2022-08-11T09:37:08.573Z,39.59
2022-08-11T09:38:08.564Z,39.49
2022-08-11T09:39:08.642Z,39.48
2022-08-11T09:40:08.551Z,39.51
2022-08-11T09:41:08.523Z,39.48
2022-08-11T09:42:11.349Z,39.53
2022-08-11T09:43:09.505Z,39.56
2022-08-11T09:44:08.484Z,39.67
2022-08-11T09:45:08.487Z,39.74
2022-08-11T09:46:08.454Z,39.81
2022-08-11T09:47:08.443Z,39.90
2022-08-11T09:48:08.426Z,40.02
2022-08-11T09:49:08.424Z,40.12
2022-08-11T09:50:08.428Z,40.23
2022-08-11T09:51:08.405Z,40.34
2022-08-11T09:52:08.385Z,40.43
2022-08-11T09:53:36.414Z,40.49
2022-08-11T09:54:09.355Z,40.50
2022-08-11T09:55:08.346Z,40.56
2022-08-11T09:56:08.336Z,40.62
2022-08-11T09:57:08.326Z,40.65
2022-08-11T09:58:08.297Z,40.65
2022-08-11T09:59:08.299Z,40.72
2022-08-11T10:00:12.195Z,40.78
2022-08-11T10:01:08.361Z,40.81
2022-08-11T10:02:08.267Z,40.88
2022-08-11T10:03:08.238Z,40.96
2022-08-11T10:04:08.226Z,41.07
2022-08-11T10:05:08.227Z,41.19
2022-08-11T10:06:08.407Z,41.25
2022-08-11T10:07:08.189Z,41.31
2022-08-11T10:08:08.176Z,41.40
2022-08-11T10:09:08.167Z,41.49
2022-08-11T10:10:08.168Z,41.55
2022-08-11T10:11:08.142Z,41.56
2022-08-11T10:12:08.128Z,41.62
2022-08-11T10:14:30.519Z,41.70
2022-08-11T10:14:33.748Z,41.72
2022-08-11T10:15:09.148Z,41.74
2022-08-11T10:16:15.574Z,41.72
2022-08-11T10:17:09.063Z,41.77
2022-08-11T10:18:08.048Z,41.85
2022-08-11T10:19:08.035Z,41.95
2022-08-11T10:20:08.030Z,41.99
2022-08-11T10:21:08.022Z,41.99
2022-08-11T10:22:07.993Z,41.99
2022-08-11T10:23:08.006Z,42.02
2022-08-11T10:24:07.974Z,42.10
2022-08-11T10:25:07.979Z,42.10
2022-08-11T10:26:07.970Z,42.17
2022-08-11T10:27:07.933Z,42.21
2022-08-11T10:28:28.631Z,42.24
2022-08-11T10:29:13.450Z,42.24
2022-08-11T10:30:08.905Z,42.25
2022-08-11T10:31:12.567Z,42.33
2022-08-11T10:32:08.870Z,42.38
2022-08-11T10:33:07.860Z,42.44
2022-08-11T10:34:07.845Z,42.55
2022-08-11T10:35:07.831Z,42.62
2022-08-11T10:36:16.725Z,42.66
2022-08-11T10:37:08.820Z,42.69
2022-08-11T10:38:09.993Z,42.78
2022-08-11T10:39:07.814Z,42.85
2022-08-11T10:40:07.763Z,42.86
2022-08-11T10:41:07.775Z,42.86
2022-08-11T10:42:12.286Z,42.85
2022-08-11T10:43:08.724Z,42.88
2022-08-11T10:44:07.719Z,42.92
2022-08-11T10:45:07.714Z,43.03
2022-08-11T10:46:07.711Z,43.06
2022-08-11T10:47:07.681Z,43.11
2022-08-11T10:48:10.935Z,43.01
2022-08-11T10:49:08.654Z,42.95
2022-08-11T10:50:07.645Z,42.89
2022-08-11T10:51:07.645Z,42.74
2022-08-11T10:52:07.631Z,42.57
2022-08-11T10:53:07.878Z,42.33
2022-08-11T10:54:07.584Z,42.21
2022-08-11T10:55:08.607Z,42.09
2022-08-11T10:56:07.559Z,41.88
2022-08-11T10:57:07.547Z,41.72
2022-08-11T10:58:07.545Z,41.65
2022-08-11T10:59:07.536Z,41.68
2022-08-11T11:00:07.519Z,41.66
2022-08-11T11:01:07.550Z,41.70
2022-08-11T11:02:07.480Z,41.63
2022-08-11T11:03:23.091Z,41.55
2022-08-11T11:04:08.458Z,41.43
2022-08-11T11:05:07.462Z,41.24
2022-08-11T11:06:28.811Z,41.07
2022-08-11T11:07:08.427Z,40.81
2022-08-11T11:08:07.407Z,40.50
2022-08-11T11:09:07.396Z,40.21
2022-08-11T11:10:07.394Z,39.96
2022-08-11T11:11:07.370Z,39.75
2022-08-11T11:12:07.364Z,39.48
2022-08-11T11:13:07.341Z,39.21
2022-08-11T11:14:07.329Z,38.99
2022-08-11T11:15:08.356Z,38.79
2022-08-11T11:16:08.322Z,38.68
2022-08-11T11:17:07.299Z,38.58
2022-08-11T11:18:07.281Z,38.48
2022-08-11T11:19:07.281Z,38.33
2022-08-11T11:20:07.292Z,38.17
2022-08-11T11:21:07.258Z,38.02
2022-08-11T11:22:07.221Z,37.92
2022-08-11T11:23:07.234Z,37.78
2022-08-11T11:24:07.211Z,37.74
2022-08-11T11:25:07.201Z,37.75
2022-08-11T11:26:07.177Z,37.72
2022-08-11T11:27:07.177Z,37.67
2022-08-11T11:28:07.152Z,37.65
2022-08-11T11:29:07.199Z,37.65
2022-08-11T11:30:07.123Z,37.59
2022-08-11T11:31:07.123Z,37.56
2022-08-11T11:32:07.100Z,37.51
2022-08-11T11:33:07.093Z,37.49
2022-08-11T11:34:12.695Z,37.48
2022-08-11T11:35:08.063Z,37.53
2022-08-11T11:36:07.065Z,37.49
2022-08-11T11:37:07.044Z,37.37
2022-08-11T11:38:10.486Z,37.28
2022-08-11T11:39:08.047Z,37.18
2022-08-11T11:40:07.000Z,37.13
2022-08-11T11:41:07.010Z,37.08
2022-08-11T11:42:06.972Z,37.11
2022-08-11T11:43:06.956Z,37.07
2022-08-11T11:44:06.944Z,37.01
2022-08-11T11:45:06.971Z,37.03
2022-08-11T11:46:06.943Z,37.03
2022-08-11T11:47:06.919Z,37.07
2022-08-11T11:48:06.911Z,37.06
2022-08-11T11:49:06.943Z,37.03
2022-08-11T11:50:07.877Z,36.99
2022-08-11T11:51:15.558Z,36.96
2022-08-11T11:52:14.355Z,36.95
2022-08-11T11:53:14.333Z,36.95
2022-08-11T11:54:14.319Z,36.93
2022-08-11T11:55:15.539Z,36.92
2022-08-11T11:56:06.798Z,36.86
2022-08-11T11:57:06.787Z,36.76
2022-08-11T11:58:06.768Z,36.55
2022-08-11T11:59:06.756Z,36.47
2022-08-11T12:00:06.740Z,36.40
2022-08-11T12:01:06.749Z,36.31
2022-08-11T12:02:11.665Z,36.31
2022-08-11T12:03:07.748Z,36.35
2022-08-11T12:04:06.691Z,36.37
2022-08-11T12:05:06.755Z,36.40
2022-08-11T12:06:06.697Z,36.43
2022-08-11T12:07:06.658Z,36.40
2022-08-11T12:08:13.052Z,36.35
2022-08-11T12:09:07.638Z,36.30
2022-08-11T12:10:06.617Z,36.25
2022-08-11T12:11:06.634Z,36.30
2022-08-11T12:12:06.591Z,36.30
2022-08-11T12:13:06.569Z,36.31
2022-08-11T12:14:10.450Z,36.33
2022-08-11T12:15:06.551Z,36.37
2022-08-11T12:16:33.538Z,36.42
2022-08-11T12:17:07.522Z,36.43
2022-08-11T12:18:06.523Z,36.46
2022-08-11T12:19:06.509Z,36.49
2022-08-11T12:20:06.523Z,36.49
2022-08-11T12:21:07.503Z,36.40
2022-08-11T12:22:06.479Z,36.37
2022-08-11T12:23:06.463Z,36.31
2022-08-11T12:24:06.455Z,36.30
2022-08-11T12:25:06.445Z,36.21
2022-08-11T12:27:15.823Z,36.05
2022-08-11T12:28:07.403Z,35.98
2022-08-11T12:29:06.394Z,35.95
2022-08-11T12:30:06.394Z,35.92
2022-08-11T12:31:06.355Z,35.86
2022-08-11T12:32:06.355Z,35.86
2022-08-11T12:33:06.343Z,35.88
2022-08-11T12:34:06.352Z,35.92
2022-08-11T12:35:06.327Z,35.98
2022-08-11T12:36:06.315Z,36.02
2022-08-11T12:37:06.327Z,36.00
2022-08-11T12:38:10.686Z,35.93
2022-08-11T12:39:24.218Z,35.89
2022-08-11T12:40:16.729Z,35.86
2022-08-11T12:41:15.578Z,35.88
2022-08-11T12:42:07.404Z,35.93
2022-08-11T12:43:06.213Z,35.98
2022-08-11T12:44:07.236Z,36.04
2022-08-11T12:45:06.207Z,36.12
2022-08-11T12:46:07.194Z,36.17
2022-08-11T12:47:06.176Z,36.18
2022-08-11T12:48:57.870Z,36.14
2022-08-11T12:49:07.176Z,36.07
2022-08-11T12:50:06.259Z,36.02
2022-08-11T12:51:07.109Z,35.98
2022-08-11T12:52:14.701Z,35.92
2022-08-11T12:53:07.089Z,35.90
2022-08-11T12:54:06.081Z,35.89